createdAt,value
2023-05-10T00:02:20.027Z,6.67
2023-05-10T00:04:46.331Z,6.50
2023-05-10T00:07:12.685Z,6.30
2023-05-10T00:09:38.997Z,6.13
2023-05-10T00:12:05.664Z,5.80
2023-05-10T00:14:32.090Z,5.77
2023-05-10T00:16:58.449Z,5.40
2023-05-10T00:19:24.709Z,5.50
2023-05-10T00:21:50.998Z,5.20
2023-05-10T00:24:17.276Z,5.57
2023-05-10T00:26:43.521Z,5.53
2023-05-10T00:29:09.792Z,5.93
2023-05-10T00:31:36.106Z,5.27
2023-05-10T00:34:02.502Z,5.83
2023-05-10T00:36:28.934Z,5.80
2023-05-10T00:38:55.246Z,6.50
2023-05-10T00:41:22.091Z,6.60
2023-05-10T00:43:49.281Z,6.40
2023-05-10T00:46:16.171Z,6.77
2023-05-10T00:48:43.020Z,6.27
2023-05-10T00:51:09.361Z,6.40
2023-05-10T00:53:36.062Z,6.10
2023-05-10T00:56:04.040Z,6.00
2023-05-10T00:58:31.844Z,6.67
2023-05-10T01:00:58.730Z,5.73
2023-05-10T01:03:25.829Z,5.60
2023-05-10T01:05:52.197Z,5.40
2023-05-10T01:08:18.666Z,5.03
2023-05-10T01:10:45.066Z,4.60
2023-05-10T01:13:12.050Z,4.80
2023-05-10T01:15:38.581Z,4.10
2023-05-10T01:18:04.953Z,4.37
2023-05-10T01:20:36.482Z,3.53
2023-05-10T01:23:15.061Z,3.50
2023-05-10T01:25:56.325Z,3.70
2023-05-10T01:28:22.645Z,3.80
2023-05-10T01:30:52.229Z,3.90
2023-05-10T01:33:18.432Z,3.37
2023-05-10T01:35:58.901Z,4.23
2023-05-10T01:38:44.059Z,4.90
2023-05-10T01:41:13.360Z,4.80
2023-05-10T01:43:51.336Z,5.53
2023-05-10T01:46:21.113Z,6.07
2023-05-10T01:48:48.970Z,7.23
2023-05-10T01:51:17.838Z,7.57
2023-05-10T01:53:45.777Z,7.90
2023-05-10T01:56:13.052Z,7.93
2023-05-10T01:58:41.310Z,8.40
2023-05-10T02:01:08.220Z,8.37
2023-05-10T02:03:36.499Z,8.80
2023-05-10T02:06:03.444Z,8.83
2023-05-10T02:08:29.961Z,8.57
2023-05-10T02:10:57.415Z,9.00
2023-05-10T02:13:25.055Z,9.47
2023-05-10T02:15:51.958Z,9.97
2023-05-10T02:18:18.902Z,9.27
2023-05-10T02:20:48.629Z,9.03
2023-05-10T02:23:17.341Z,9.33
2023-05-10T02:25:44.897Z,8.67
2023-05-10T02:28:12.635Z,8.43
2023-05-10T02:30:38.990Z,8.80
2023-05-10T02:33:06.569Z,8.53
2023-05-10T02:35:34.248Z,8.80
2023-05-10T02:38:01.288Z,9.13
2023-05-10T02:40:28.948Z,9.30
2023-05-10T02:42:55.965Z,11.03
2023-05-10T02:45:24.557Z,10.70
2023-05-10T02:47:51.017Z,10.77
2023-05-10T02:50:17.664Z,10.60
2023-05-10T02:52:46.077Z,10.93
2023-05-10T02:55:13.664Z,11.20
2023-05-10T02:57:44.177Z,11.83
2023-05-10T03:00:10.725Z,12.23
2023-05-10T03:02:37.320Z,12.50
2023-05-10T03:05:04.452Z,11.43
2023-05-10T03:07:30.845Z,10.70
2023-05-10T03:09:57.280Z,10.57
2023-05-10T03:12:39.840Z,10.33
2023-05-10T03:15:14.833Z,10.87
2023-05-10T03:17:41.135Z,10.50
2023-05-10T03:20:10.717Z,11.00
2023-05-10T03:22:47.798Z,11.00
2023-05-10T03:25:16.359Z,11.17
2023-05-10T03:27:44.149Z,12.13
2023-05-10T03:30:13.945Z,11.83
2023-05-10T03:32:40.417Z,13.40
2023-05-10T03:35:14.103Z,13.63
2023-05-10T03:37:40.793Z,13.47
2023-05-10T03:40:07.582Z,13.93
2023-05-10T03:42:33.856Z,13.80
2023-05-10T03:45:00.197Z,14.53
2023-05-10T03:47:26.827Z,14.47
2023-05-10T03:49:53.205Z,14.60
2023-05-10T03:52:19.523Z,15.57
2023-05-10T03:54:45.851Z,15.53
2023-05-10T03:57:12.093Z,14.63
2023-05-10T03:59:38.365Z,14.97
2023-05-10T04:02:04.649Z,14.93
2023-05-10T04:04:30.960Z,14.27
2023-05-10T04:06:57.195Z,15.20
2023-05-10T04:09:23.555Z,15.47
2023-05-10T04:11:49.895Z,16.80
2023-05-10T04:14:16.187Z,15.20
2023-05-10T04:16:42.581Z,13.90
2023-05-10T04:19:08.878Z,14.40
2023-05-10T04:21:35.332Z,14.57
2023-05-10T04:24:01.660Z,14.80
2023-05-10T04:26:28.030Z,14.20
2023-05-10T04:28:54.329Z,13.63
2023-05-10T04:31:20.712Z,13.87
2023-05-10T04:33:47.056Z,13.07
2023-05-10T04:36:13.344Z,13.83
2023-05-10T04:38:39.732Z,13.60
2023-05-10T04:41:10.652Z,12.70
2023-05-10T04:43:38.321Z,13.53
2023-05-10T04:46:05.102Z,13.73
2023-05-10T04:48:31.579Z,13.67
2023-05-10T04:50:58.067Z,53.10
2023-05-10T04:53:24.459Z,15.60
2023-05-10T04:55:50.741Z,14.93
2023-05-10T04:58:17.035Z,14.90
2023-05-10T05:00:43.527Z,15.37
2023-05-10T05:03:10.625Z,14.03
2023-05-10T05:05:37.070Z,15.17
2023-05-10T05:08:03.571Z,15.80
2023-05-10T05:10:29.862Z,15.17
2023-05-10T05:12:56.344Z,15.57
2023-05-10T05:15:22.750Z,16.13
2023-05-10T05:17:49.036Z,16.23
2023-05-10T05:20:15.561Z,15.73
2023-05-10T05:22:41.988Z,15.57
2023-05-10T05:25:08.499Z,15.70
2023-05-10T05:27:34.746Z,15.67
2023-05-10T05:30:01.095Z,14.33
2023-05-10T05:32:27.501Z,13.70
2023-05-10T05:34:53.840Z,14.73
2023-05-10T05:37:21.855Z,13.87
2023-05-10T05:39:48.161Z,13.43
2023-05-10T05:42:14.460Z,61.00
2023-05-10T05:44:41.059Z,61.73
2023-05-10T05:47:07.504Z,14.87
2023-05-10T05:49:33.752Z,18.20
2023-05-10T05:52:01.461Z,15.57
2023-05-10T05:54:28.252Z,13.70
2023-05-10T05:56:55.257Z,10.83
2023-05-10T05:59:21.664Z,10.97
2023-05-10T06:01:48.108Z,11.43
2023-05-10T06:04:14.502Z,11.07
2023-05-10T06:06:40.849Z,10.30
2023-05-10T06:09:07.156Z,12.30
2023-05-10T06:11:33.683Z,25.77
2023-05-10T06:14:00.373Z,7.07
2023-05-10T06:16:26.831Z,6.67
2023-05-10T06:18:53.186Z,7.00
2023-05-10T06:21:19.445Z,5.73
2023-05-10T06:23:46.067Z,5.90
2023-05-10T06:26:12.377Z,6.27
2023-05-10T06:28:41.746Z,6.20
2023-05-10T06:31:08.191Z,6.20
2023-05-10T06:33:34.663Z,6.40
2023-05-10T06:36:01.160Z,6.27
2023-05-10T06:38:27.540Z,6.90
2023-05-10T06:40:53.858Z,6.17
2023-05-10T06:43:20.175Z,6.53
2023-05-10T06:45:46.470Z,56.70
2023-05-10T06:48:12.861Z,10.37
2023-05-10T06:50:39.208Z,6.07
2023-05-10T06:53:05.546Z,6.30
2023-05-10T06:55:32.266Z,5.70
2023-05-10T06:57:58.652Z,6.17
2023-05-10T07:00:25.112Z,5.70
2023-05-10T07:02:51.999Z,5.87
2023-05-10T07:05:21.992Z,5.67
2023-05-10T07:07:48.763Z,5.73
2023-05-10T07:10:15.167Z,5.60
2023-05-10T07:12:41.572Z,5.97
2023-05-10T07:15:08.258Z,4.93
2023-05-10T07:17:34.709Z,7.60
2023-05-10T07:20:01.437Z,6.80
2023-05-10T07:22:27.849Z,5.40
2023-05-10T07:24:54.202Z,5.00
2023-05-10T07:27:20.641Z,4.63
2023-05-10T07:29:47.076Z,4.70
2023-05-10T07:32:13.371Z,4.70
2023-05-10T07:34:39.782Z,4.83
2023-05-10T07:37:07.235Z,4.40
2023-05-10T07:39:33.573Z,4.07
2023-05-10T07:41:59.908Z,3.97
2023-05-10T07:44:26.318Z,3.80
2023-05-10T07:46:53.001Z,3.67
2023-05-10T07:49:19.319Z,3.53
2023-05-10T07:51:45.650Z,3.67
2023-05-10T07:54:12.198Z,3.60
2023-05-10T07:56:38.601Z,3.33
2023-05-10T07:59:05.988Z,2.50
2023-05-10T08:01:35.684Z,2.20
2023-05-10T08:04:02.871Z,1.60
2023-05-10T08:06:30.710Z,1.00
2023-05-10T08:08:57.187Z,0.60
2023-05-10T08:11:23.609Z,0.90
2023-05-10T08:13:51.160Z,0.90
2023-05-10T08:16:17.793Z,0.50
2023-05-10T08:18:44.931Z,0.60
2023-05-10T08:21:12.282Z,7.17
2023-05-10T08:23:38.637Z,1.60
2023-05-10T08:26:04.954Z,1.10
2023-05-10T08:28:31.324Z,0.90
2023-05-10T08:30:57.716Z,0.63
2023-05-10T08:33:24.053Z,0.77
2023-05-10T08:35:50.459Z,0.70
2023-05-10T08:38:16.786Z,0.70
2023-05-10T08:40:43.679Z,0.80
2023-05-10T08:43:11.027Z,0.90
2023-05-10T08:45:38.972Z,1.03
2023-05-10T08:48:09.016Z,1.10
2023-05-10T08:50:39.370Z,1.30
2023-05-10T08:53:07.581Z,1.50
2023-05-10T08:55:34.380Z,1.50
2023-05-10T08:58:00.995Z,1.30
2023-05-10T09:00:27.787Z,1.47
2023-05-10T09:02:54.589Z,1.63
2023-05-10T09:05:20.998Z,2.70
2023-05-10T09:07:47.483Z,1.97
2023-05-10T09:10:14.178Z,2.30
2023-05-10T09:12:40.724Z,2.10
2023-05-10T09:15:07.918Z,2.30
2023-05-10T09:17:34.576Z,2.70
2023-05-10T09:20:01.275Z,3.70
2023-05-10T09:22:27.841Z,5.50
2023-05-10T09:25:06.328Z,6.53
2023-05-10T09:27:32.642Z,7.10
2023-05-10T09:29:58.886Z,7.50
2023-05-10T09:32:41.320Z,8.10
2023-05-10T09:35:08.226Z,10.10
2023-05-10T09:37:34.469Z,7.73
2023-05-10T09:40:00.845Z,7.43
2023-05-10T09:42:27.171Z,7.13
2023-05-10T09:44:53.467Z,5.80
2023-05-10T09:47:20.079Z,6.03
2023-05-10T09:49:53.554Z,6.67
2023-05-10T09:52:19.806Z,6.57
2023-05-10T09:54:52.867Z,6.40
2023-05-10T09:57:22.997Z,4.50
2023-05-10T09:59:51.627Z,4.00
2023-05-10T10:02:18.022Z,3.20
2023-05-10T10:04:44.389Z,3.03
2023-05-10T10:07:10.904Z,1.97
2023-05-10T10:09:37.203Z,1.60
2023-05-10T10:12:03.706Z,1.47
2023-05-10T10:14:30.407Z,1.33
2023-05-10T10:17:07.414Z,1.40
2023-05-10T10:19:36.399Z,1.40
2023-05-10T10:22:03.690Z,1.40
2023-05-10T10:24:30.379Z,1.37
2023-05-10T10:26:58.164Z,1.50
2023-05-10T10:29:26.482Z,1.67
2023-05-10T10:32:10.428Z,1.30
2023-05-10T10:34:36.847Z,10.30
2023-05-10T10:37:06.790Z,1.40
2023-05-10T10:39:33.410Z,0.90
2023-05-10T10:41:59.977Z,1.10
2023-05-10T10:44:32.977Z,1.10
2023-05-10T10:47:12.857Z,1.07
2023-05-10T10:49:42.619Z,1.10
2023-05-10T10:52:32.069Z,1.13
2023-05-10T10:55:02.185Z,1.40
2023-05-10T10:57:30.969Z,1.50
2023-05-10T11:00:15.830Z,2.93
2023-05-10T11:02:42.960Z,1.93
2023-05-10T11:05:24.549Z,2.90
2023-05-10T11:07:54.708Z,2.40
2023-05-10T11:10:21.849Z,2.10
2023-05-10T11:13:03.309Z,1.73
2023-05-10T11:15:31.348Z,1.23
2023-05-10T11:17:57.670Z,1.30
2023-05-10T11:20:25.853Z,1.33
2023-05-10T11:22:54.942Z,1.50
2023-05-10T11:25:26.943Z,1.20
2023-05-10T11:27:53.301Z,1.30
2023-05-10T11:30:20.221Z,1.20
2023-05-10T11:32:46.851Z,1.20
2023-05-10T11:35:13.358Z,0.90
2023-05-10T11:37:42.354Z,0.97
2023-05-10T11:40:10.561Z,1.00
2023-05-10T11:42:38.289Z,0.90
2023-05-10T11:45:05.040Z,0.80
2023-05-10T11:47:31.315Z,1.00
2023-05-10T11:49:57.873Z,1.00
2023-05-10T11:52:24.418Z,0.90
2023-05-10T11:54:54.947Z,0.90
2023-05-10T11:57:21.809Z,0.90
2023-05-10T11:59:48.453Z,0.90
2023-05-10T12:02:15.715Z,0.73
2023-05-10T12:04:42.565Z,2.10
2023-05-10T12:07:08.903Z,0.80
2023-05-10T12:09:43.420Z,1.20
2023-05-10T12:12:10.770Z,1.10
2023-05-10T12:14:37.584Z,1.10
2023-05-10T12:17:03.819Z,1.30
2023-05-10T12:19:37.685Z,1.33
2023-05-10T12:22:05.634Z,1.37
2023-05-10T12:24:31.902Z,1.30
2023-05-10T12:26:58.196Z,1.43
2023-05-10T12:29:24.490Z,1.30
2023-05-10T12:31:55.035Z,1.30
2023-05-10T12:34:28.033Z,1.50
2023-05-10T12:36:54.784Z,1.50
2023-05-10T12:39:21.038Z,1.13
2023-05-10T12:41:47.344Z,1.30
2023-05-10T12:44:13.713Z,13.80
2023-05-10T12:46:40.115Z,5.90
2023-05-10T12:49:09.335Z,1.33
2023-05-10T12:51:36.063Z,1.17
2023-05-10T12:54:03.191Z,1.40
2023-05-10T12:56:29.532Z,1.30
2023-05-10T12:58:58.227Z,1.33
2023-05-10T13:01:24.664Z,1.40
2023-05-10T13:03:51.463Z,1.30
2023-05-10T13:06:17.709Z,1.23
2023-05-10T13:08:44.012Z,1.40
2023-05-10T13:11:10.452Z,1.40
2023-05-10T13:13:36.718Z,1.20
2023-05-10T13:16:03.201Z,1.40
2023-05-10T13:18:29.503Z,1.10
2023-05-10T13:20:56.760Z,1.20
2023-05-10T13:23:23.051Z,1.10
2023-05-10T13:25:49.294Z,1.13
2023-05-10T13:28:15.784Z,1.17
2023-05-10T13:30:42.121Z,1.07
2023-05-10T13:33:08.407Z,1.10
2023-05-10T13:35:34.783Z,1.00
2023-05-10T13:38:01.141Z,1.13
2023-05-10T13:40:27.462Z,0.90
2023-05-10T13:42:54.015Z,1.00
2023-05-10T13:45:20.603Z,0.90
2023-05-10T13:47:46.965Z,1.87
2023-05-10T13:50:13.258Z,2.27
2023-05-10T13:52:39.509Z,1.50
2023-05-10T13:55:05.858Z,1.70
2023-05-10T13:57:32.373Z,1.60
2023-05-10T13:59:59.170Z,1.60
2023-05-10T14:02:26.200Z,1.70
2023-05-10T14:04:52.653Z,1.47
2023-05-10T14:07:18.940Z,1.27
2023-05-10T14:09:45.350Z,1.20
2023-05-10T14:12:12.403Z,1.10
2023-05-10T14:14:38.685Z,1.30
2023-05-10T14:17:05.066Z,1.30
2023-05-10T14:19:33.391Z,1.40
2023-05-10T14:21:59.732Z,1.57
2023-05-10T14:24:26.220Z,1.50
2023-05-10T14:26:54.639Z,2.80
2023-05-10T14:29:21.725Z,1.40
2023-05-10T14:31:48.398Z,1.40
2023-05-10T14:34:14.743Z,1.70
2023-05-10T14:36:41.121Z,1.77
2023-05-10T14:39:07.663Z,1.50
2023-05-10T14:41:33.957Z,1.70
2023-05-10T14:44:00.258Z,1.60
2023-05-10T14:46:26.778Z,1.40
2023-05-10T14:48:53.169Z,1.45
2023-05-10T14:51:22.634Z,1.50
2023-05-10T14:53:52.121Z,1.77
2023-05-10T14:56:18.362Z,1.60
2023-05-10T14:58:44.682Z,1.77
2023-05-10T15:01:11.029Z,1.60
2023-05-10T15:03:37.851Z,1.55
2023-05-10T15:06:05.229Z,1.95
2023-05-10T15:08:31.719Z,1.98
2023-05-10T15:10:58.232Z,1.85
2023-05-10T15:13:24.535Z,1.70
2023-05-10T15:15:50.910Z,1.60
2023-05-10T15:18:20.278Z,4.07
2023-05-10T15:20:47.220Z,2.28
2023-05-10T15:23:13.814Z,1.80
2023-05-10T15:25:40.445Z,1.80
2023-05-10T15:28:06.983Z,1.60
2023-05-10T15:30:33.321Z,1.85
2023-05-10T15:33:00.788Z,3.55
2023-05-10T15:35:27.294Z,2.20
2023-05-10T15:37:53.621Z,1.60
2023-05-10T15:40:20.325Z,1.92
2023-05-10T15:42:46.615Z,1.83
2023-05-10T15:45:13.203Z,2.00
2023-05-10T15:47:40.352Z,2.10
2023-05-10T15:50:07.325Z,2.30
2023-05-10T15:52:33.628Z,2.42
2023-05-10T15:54:59.964Z,2.10
2023-05-10T15:57:26.283Z,2.10
2023-05-10T15:59:52.562Z,2.07
2023-05-10T16:02:19.393Z,2.10
2023-05-10T16:04:45.822Z,1.85
2023-05-10T16:07:12.258Z,1.92
2023-05-10T16:09:38.599Z,2.25
2023-05-10T16:12:04.858Z,1.92
2023-05-10T16:14:31.769Z,1.88
2023-05-10T16:16:58.168Z,1.60
2023-05-10T16:19:24.607Z,15.25
2023-05-10T16:21:50.993Z,2.17
2023-05-10T16:24:17.310Z,1.50
2023-05-10T16:26:43.635Z,1.30
2023-05-10T16:29:10.000Z,1.30
2023-05-10T16:31:36.369Z,1.77
2023-05-10T16:34:02.702Z,1.40
2023-05-10T16:36:29.559Z,1.67
2023-05-10T16:38:55.965Z,1.60
2023-05-10T16:41:22.452Z,1.20
2023-05-10T16:43:49.264Z,1.60
2023-05-10T16:46:16.108Z,1.40
2023-05-10T16:48:42.460Z,1.20
2023-05-10T16:51:09.180Z,1.20
2023-05-10T16:53:36.191Z,1.50
2023-05-10T16:56:02.700Z,1.37
2023-05-10T16:58:29.055Z,1.43
2023-05-10T17:00:55.501Z,1.30
2023-05-10T17:03:22.184Z,1.20
2023-05-10T17:05:48.806Z,1.03
2023-05-10T17:08:15.149Z,1.20
2023-05-10T17:10:41.599Z,1.13
2023-05-10T17:13:09.844Z,1.13
2023-05-10T17:15:37.678Z,1.20
2023-05-10T17:18:04.719Z,1.03
2023-05-10T17:20:31.267Z,1.20
2023-05-10T17:22:57.875Z,1.33
2023-05-10T17:25:24.430Z,2.27
2023-05-10T17:27:50.721Z,1.27
2023-05-10T17:30:19.191Z,1.27
2023-05-10T17:32:45.674Z,1.40
2023-05-10T17:35:12.192Z,1.20
2023-05-10T17:37:38.573Z,1.30
2023-05-10T17:40:07.741Z,1.03
2023-05-10T17:42:34.186Z,15.17
2023-05-10T17:45:00.752Z,5.10
2023-05-10T17:47:27.869Z,1.17
2023-05-10T17:49:54.312Z,1.03
2023-05-10T17:52:20.603Z,1.00
2023-05-10T17:54:47.162Z,1.20
2023-05-10T17:57:13.572Z,1.20
2023-05-10T17:59:39.857Z,1.07
2023-05-10T18:02:06.642Z,1.30
2023-05-10T18:04:33.174Z,1.10
2023-05-10T18:07:01.190Z,1.00
2023-05-10T18:09:27.984Z,1.30
2023-05-10T18:11:54.328Z,1.20
2023-05-10T18:14:35.972Z,1.40
2023-05-10T18:17:06.078Z,1.30
2023-05-10T18:19:32.518Z,1.50
2023-05-10T18:21:58.986Z,53.03
2023-05-10T18:24:37.704Z,29.37
2023-05-10T18:27:05.900Z,1.80
2023-05-10T18:29:32.359Z,1.30
2023-05-10T18:31:58.609Z,1.67
2023-05-10T18:34:24.920Z,1.80
2023-05-10T18:36:52.149Z,1.43
2023-05-10T18:39:18.471Z,1.40
2023-05-10T18:41:45.643Z,1.20
2023-05-10T18:44:12.079Z,1.50
2023-05-10T18:46:38.646Z,1.40
2023-05-10T18:49:05.813Z,1.43
2023-05-10T18:51:32.121Z,2.00
2023-05-10T18:53:58.435Z,1.50
2023-05-10T18:56:24.919Z,1.67
2023-05-10T18:58:51.264Z,1.50
2023-05-10T19:01:17.870Z,1.30
2023-05-10T19:03:44.161Z,1.77
2023-05-10T19:06:11.211Z,1.93
2023-05-10T19:08:37.542Z,2.10
2023-05-10T19:11:03.912Z,2.30
2023-05-10T19:13:30.305Z,1.87
2023-05-10T19:16:06.749Z,1.90
2023-05-10T19:18:33.459Z,1.90
2023-05-10T19:21:03.540Z,1.87
2023-05-10T19:23:31.598Z,1.80
2023-05-10T19:25:58.020Z,1.30
2023-05-10T19:28:24.615Z,1.60
2023-05-10T19:30:51.194Z,1.50
2023-05-10T19:33:18.035Z,1.30
2023-05-10T19:35:44.597Z,1.60
2023-05-10T19:38:11.304Z,1.63
2023-05-10T19:40:37.619Z,1.70
2023-05-10T19:43:04.216Z,21.93
2023-05-10T19:45:30.685Z,36.13
2023-05-10T19:47:57.657Z,2.47
2023-05-10T19:50:24.033Z,1.47
2023-05-10T19:52:50.628Z,1.50
2023-05-10T19:55:26.072Z,1.70
2023-05-10T19:57:52.818Z,1.50
2023-05-10T20:00:19.272Z,1.63
2023-05-10T20:02:45.623Z,1.60
2023-05-10T20:05:12.014Z,1.70
2023-05-10T20:07:38.245Z,1.73
2023-05-10T20:10:04.663Z,1.60
2023-05-10T20:12:30.897Z,1.67
2023-05-10T20:14:57.408Z,1.60
2023-05-10T20:17:23.835Z,1.60
2023-05-10T20:19:50.203Z,1.90
2023-05-10T20:22:16.529Z,1.87
2023-05-10T20:24:42.856Z,2.00
2023-05-10T20:27:09.178Z,2.20
2023-05-10T20:29:35.430Z,2.10
2023-05-10T20:32:01.815Z,2.03
2023-05-10T20:34:28.110Z,2.00
2023-05-10T20:36:54.419Z,2.10
2023-05-10T20:39:20.869Z,2.07
2023-05-10T20:41:47.370Z,2.20
2023-05-10T20:44:13.599Z,2.43
2023-05-10T20:46:40.047Z,1.97
2023-05-10T20:49:08.547Z,2.00
2023-05-10T20:51:34.856Z,2.00
2023-05-10T20:54:04.384Z,2.00
2023-05-10T20:56:30.990Z,2.20
2023-05-10T20:58:57.356Z,2.27
2023-05-10T21:01:23.639Z,2.57
2023-05-10T21:03:50.004Z,2.33
2023-05-10T21:06:16.247Z,2.60
2023-05-10T21:08:42.598Z,2.47
2023-05-10T21:11:08.931Z,2.47
2023-05-10T21:13:35.268Z,2.60
2023-05-10T21:16:01.560Z,2.43
2023-05-10T21:18:27.973Z,2.00
2023-05-10T21:20:54.298Z,2.27
2023-05-10T21:23:20.601Z,2.57
2023-05-10T21:25:46.894Z,2.70
2023-05-10T21:28:13.201Z,2.50
2023-05-10T21:30:39.423Z,2.37
2023-05-10T21:33:05.682Z,2.43
2023-05-10T21:35:32.125Z,2.27
2023-05-10T21:37:58.414Z,2.30
2023-05-10T21:40:24.751Z,2.10
2023-05-10T21:42:51.065Z,2.10
2023-05-10T21:45:17.893Z,2.00
2023-05-10T21:47:44.169Z,1.77
2023-05-10T21:50:11.162Z,2.03
2023-05-10T21:52:38.198Z,1.90
2023-05-10T21:55:05.246Z,2.10
2023-05-10T21:57:32.162Z,2.00
2023-05-10T21:59:58.460Z,1.80
2023-05-10T22:02:24.971Z,2.10
2023-05-10T22:04:51.304Z,2.20
2023-05-10T22:07:17.621Z,2.20
2023-05-10T22:09:43.952Z,2.20
2023-05-10T22:12:11.000Z,2.77
2023-05-10T22:14:37.372Z,2.57
2023-05-10T22:17:03.757Z,2.30
2023-05-10T22:19:30.072Z,2.50
2023-05-10T22:21:56.517Z,2.50
2023-05-10T22:24:22.837Z,2.60
2023-05-10T22:26:49.094Z,2.77
2023-05-10T22:29:15.392Z,3.70
2023-05-10T22:31:41.706Z,4.80
2023-05-10T22:34:08.056Z,4.70
2023-05-10T22:36:34.359Z,2.30
2023-05-10T22:39:00.657Z,1.70
2023-05-10T22:41:26.898Z,2.20
2023-05-10T22:43:53.204Z,2.13
2023-05-10T22:46:19.575Z,1.20
2023-05-10T22:48:45.877Z,1.37
2023-05-10T22:51:12.174Z,1.07
2023-05-10T22:53:38.419Z,1.00
2023-05-10T22:56:05.773Z,1.10
2023-05-10T22:58:32.100Z,1.03
2023-05-10T23:00:58.348Z,1.20
2023-05-10T23:03:24.967Z,1.00
2023-05-10T23:05:51.817Z,1.17
2023-05-10T23:08:18.079Z,1.17
2023-05-10T23:10:44.402Z,1.10
2023-05-10T23:13:10.712Z,0.83
2023-05-10T23:15:37.160Z,0.87
2023-05-10T23:18:05.836Z,0.90
2023-05-10T23:20:32.992Z,1.10
2023-05-10T23:22:59.293Z,0.80
2023-05-10T23:25:25.655Z,0.90
2023-05-10T23:27:52.033Z,0.90
2023-05-10T23:30:18.826Z,0.80
2023-05-10T23:32:45.444Z,0.80
2023-05-10T23:35:11.873Z,0.60
2023-05-10T23:37:38.210Z,0.70
2023-05-10T23:40:04.849Z,0.60
2023-05-10T23:42:32.327Z,0.70
2023-05-10T23:44:58.581Z,0.60
2023-05-10T23:47:24.933Z,0.50
2023-05-10T23:49:51.235Z,0.60
2023-05-10T23:52:17.712Z,0.60
2023-05-10T23:54:45.864Z,0.70
2023-05-10T23:57:12.264Z,0.67
2023-05-10T23:59:38.490Z,0.90
